createdAt,value
2022-08-04T00:00:48.680Z,8.20
2022-08-04T00:01:48.802Z,7.60
2022-08-04T00:02:48.682Z,7.20
2022-08-04T00:03:48.693Z,7.70
2022-08-04T00:04:48.697Z,7.90
2022-08-04T00:05:48.700Z,7.30
2022-08-04T00:06:48.701Z,7.40
2022-08-04T00:07:48.709Z,7.30
2022-08-04T00:08:48.711Z,7.10
2022-08-04T00:09:48.716Z,7.40
2022-08-04T00:10:48.723Z,7.30
2022-08-04T00:11:48.723Z,7.70
2022-08-04T00:12:48.730Z,7.80
2022-08-04T00:13:52.740Z,7.30
2022-08-04T00:14:48.742Z,7.30
2022-08-04T00:15:48.739Z,7.10
2022-08-04T00:16:48.751Z,7.50
2022-08-04T00:17:48.747Z,7.70
2022-08-04T00:18:48.749Z,7.50
2022-08-04T00:19:48.755Z,7.50
2022-08-04T00:20:48.760Z,7.20
2022-08-04T00:21:48.770Z,7.30
2022-08-04T00:22:48.767Z,7.50
2022-08-04T00:24:11.344Z,7.80
2022-08-04T00:24:48.772Z,7.60
2022-08-04T00:25:48.776Z,7.40
2022-08-04T00:26:48.782Z,7.30
2022-08-04T00:27:48.784Z,7.70
2022-08-04T00:28:48.790Z,7.70
2022-08-04T00:29:48.794Z,7.70
2022-08-04T00:30:48.796Z,7.30
2022-08-04T00:31:54.711Z,7.60
2022-08-04T00:32:48.807Z,8.00
2022-08-04T00:33:48.813Z,7.80
2022-08-04T00:34:48.816Z,8.10
2022-08-04T00:35:48.817Z,8.20
2022-08-04T00:36:48.820Z,8.00
2022-08-04T00:37:48.825Z,7.80
2022-08-04T00:38:48.828Z,7.90
2022-08-04T00:39:48.832Z,7.30
2022-08-04T00:40:48.837Z,7.50
2022-08-04T00:41:56.164Z,8.00
2022-08-04T00:42:58.697Z,7.70
2022-08-04T00:43:48.846Z,7.90
2022-08-04T00:44:48.850Z,7.60
2022-08-04T00:46:15.155Z,7.60
2022-08-04T00:46:48.858Z,7.30
2022-08-04T00:47:48.863Z,8.00
2022-08-04T00:48:48.863Z,7.70
2022-08-04T00:49:48.868Z,7.50
2022-08-04T00:50:48.870Z,7.70
2022-08-04T00:51:48.880Z,7.60
2022-08-04T00:52:48.882Z,7.50
2022-08-04T00:53:49.824Z,7.90
2022-08-04T00:54:48.886Z,8.20
2022-08-04T00:55:48.896Z,8.10
2022-08-04T00:56:48.899Z,8.10
2022-08-04T00:57:48.900Z,8.50
2022-08-04T00:58:48.903Z,8.40
2022-08-04T00:59:48.910Z,8.40
2022-08-04T01:00:48.912Z,8.30
2022-08-04T01:01:48.994Z,8.40
2022-08-04T01:02:48.916Z,8.10
2022-08-04T01:03:48.921Z,8.00
2022-08-04T01:04:48.928Z,8.00
2022-08-04T01:05:48.928Z,8.10
2022-08-04T01:06:51.007Z,8.00
2022-08-04T01:07:48.937Z,8.10
2022-08-04T01:08:48.938Z,7.90
2022-08-04T01:09:48.945Z,8.00
2022-08-04T01:10:48.946Z,7.60
2022-08-04T01:11:57.586Z,7.40
2022-08-04T01:12:48.965Z,7.70
2022-08-04T01:13:48.957Z,7.60
2022-08-04T01:14:48.963Z,7.80
2022-08-04T01:15:59.254Z,7.70
2022-08-04T01:16:48.972Z,7.60
2022-08-04T01:17:48.971Z,7.60
2022-08-04T01:18:48.978Z,7.60
2022-08-04T01:19:48.982Z,7.90
2022-08-04T01:20:48.989Z,7.90
2022-08-04T01:21:48.986Z,8.00
2022-08-04T01:22:48.994Z,7.90
2022-08-04T01:23:48.995Z,8.00
2022-08-04T01:24:48.995Z,8.10
2022-08-04T01:25:49.003Z,8.10
2022-08-04T01:26:57.259Z,8.10
2022-08-04T01:27:49.009Z,8.10
2022-08-04T01:28:49.630Z,8.00
2022-08-04T01:29:49.015Z,8.10
2022-08-04T01:30:49.020Z,8.00
2022-08-04T01:31:49.020Z,7.90
2022-08-04T01:32:49.035Z,8.10
2022-08-04T01:34:03.257Z,7.90
2022-08-04T01:34:49.038Z,7.70
2022-08-04T01:35:49.036Z,7.80
2022-08-04T01:36:50.232Z,7.90
2022-08-04T01:37:49.049Z,7.80
2022-08-04T01:38:49.046Z,7.80
2022-08-04T01:39:49.050Z,7.80
2022-08-04T01:40:49.054Z,7.40
2022-08-04T01:41:57.808Z,7.80
2022-08-04T01:42:49.061Z,7.60
2022-08-04T01:43:49.064Z,7.70
2022-08-04T01:44:49.070Z,7.50
2022-08-04T01:45:49.069Z,7.30
2022-08-04T01:46:49.076Z,7.80
2022-08-04T01:47:49.079Z,7.90
2022-08-04T01:48:49.082Z,7.90
2022-08-04T01:49:49.086Z,8.00
2022-08-04T01:50:52.929Z,7.70
2022-08-04T01:51:49.096Z,7.60
2022-08-04T01:52:51.354Z,7.80
2022-08-04T01:53:49.096Z,7.90
2022-08-04T01:54:49.109Z,8.00
2022-08-04T01:55:54.499Z,8.00
2022-08-04T01:56:49.110Z,7.20
2022-08-04T01:57:49.116Z,7.20
2022-08-04T01:58:49.116Z,7.30
2022-08-04T01:59:49.122Z,7.10
2022-08-04T02:00:52.133Z,7.50
2022-08-04T02:01:49.208Z,7.20
2022-08-04T02:02:49.222Z,7.40
2022-08-04T02:04:20.078Z,7.70
2022-08-04T02:04:49.136Z,7.70
2022-08-04T02:06:03.070Z,7.90
2022-08-04T02:06:49.143Z,8.00
2022-08-04T02:07:49.150Z,7.70
2022-08-04T02:08:49.146Z,7.70
2022-08-04T02:09:54.288Z,8.00
2022-08-04T02:10:49.157Z,8.00
2022-08-04T02:11:49.157Z,8.00
2022-08-04T02:12:49.170Z,7.90
2022-08-04T02:13:49.168Z,8.00
2022-08-04T02:14:49.173Z,7.20
2022-08-04T02:15:49.172Z,7.50
2022-08-04T02:16:52.361Z,7.70
2022-08-04T02:17:49.185Z,7.60
2022-08-04T02:18:49.182Z,7.60
2022-08-04T02:19:49.183Z,7.60
2022-08-04T02:20:49.189Z,7.60
2022-08-04T02:21:49.193Z,7.80
2022-08-04T02:22:49.204Z,8.00
2022-08-04T02:23:49.200Z,7.90
2022-08-04T02:24:49.211Z,7.50
2022-08-04T02:25:49.210Z,7.10
2022-08-04T02:26:49.212Z,7.50
2022-08-04T02:28:00.186Z,7.20
2022-08-04T02:28:49.213Z,7.70
2022-08-04T02:29:49.218Z,7.10
2022-08-04T02:30:49.219Z,7.30
2022-08-04T02:31:49.225Z,7.30
2022-08-04T02:32:49.230Z,7.30
2022-08-04T02:33:49.226Z,7.70
2022-08-04T02:34:49.233Z,7.40
2022-08-04T02:35:49.239Z,7.20
2022-08-04T02:36:49.246Z,7.30
2022-08-04T02:37:49.247Z,7.30
2022-08-04T02:38:49.248Z,7.10
2022-08-04T02:39:49.636Z,7.30
2022-08-04T02:40:49.253Z,7.30
2022-08-04T02:41:49.253Z,7.60
2022-08-04T02:42:49.259Z,7.30
2022-08-04T02:43:50.876Z,7.80
2022-08-04T02:44:49.269Z,7.60
2022-08-04T02:45:49.267Z,7.60
2022-08-04T02:46:49.286Z,7.60
2022-08-04T02:48:29.320Z,7.60
2022-08-04T02:48:49.281Z,7.80
2022-08-04T02:49:49.282Z,7.70
2022-08-04T02:50:49.287Z,7.10
2022-08-04T02:51:49.287Z,7.00
2022-08-04T02:52:49.291Z,7.70
2022-08-04T02:53:49.293Z,7.80
2022-08-04T02:54:49.298Z,7.30
2022-08-04T02:55:50.653Z,7.20
2022-08-04T02:56:49.802Z,7.40
2022-08-04T02:57:49.303Z,7.60
2022-08-04T02:58:49.316Z,7.60
2022-08-04T02:59:49.314Z,7.60
2022-08-04T03:00:49.347Z,7.70
2022-08-04T03:01:57.087Z,7.70
2022-08-04T03:02:49.323Z,7.70
2022-08-04T03:03:49.325Z,7.70
2022-08-04T03:04:49.332Z,7.40
2022-08-04T03:05:54.171Z,7.60
2022-08-04T03:06:49.337Z,7.60
2022-08-04T03:07:49.339Z,7.70
2022-08-04T03:08:49.339Z,8.10
2022-08-04T03:09:49.341Z,8.30
2022-08-04T03:10:49.344Z,8.40
2022-08-04T03:11:49.350Z,8.00
2022-08-04T03:12:49.354Z,7.80
2022-08-04T03:13:49.354Z,8.00
2022-08-04T03:14:49.359Z,7.90
2022-08-04T03:15:49.363Z,8.10
2022-08-04T03:16:49.366Z,8.20
2022-08-04T03:17:52.692Z,7.80
2022-08-04T03:18:49.372Z,8.10
2022-08-04T03:19:49.373Z,8.00
2022-08-04T03:20:49.378Z,8.00
2022-08-04T03:21:49.380Z,8.00
2022-08-04T03:23:12.189Z,7.90
2022-08-04T03:23:49.387Z,8.10
2022-08-04T03:24:49.391Z,8.30
2022-08-04T03:25:57.297Z,8.70
2022-08-04T03:26:49.394Z,8.50
2022-08-04T03:27:49.396Z,8.40
2022-08-04T03:28:49.399Z,8.10
2022-08-04T03:29:49.404Z,8.60
2022-08-04T03:30:49.407Z,8.30
2022-08-04T03:31:49.411Z,8.10
2022-08-04T03:32:49.749Z,8.10
2022-08-04T03:33:49.412Z,8.20
2022-08-04T03:34:49.418Z,7.90
2022-08-04T03:35:49.421Z,8.20
2022-08-04T03:36:49.423Z,8.20
2022-08-04T03:37:49.426Z,8.30
2022-08-04T03:38:56.863Z,7.90
2022-08-04T03:39:49.434Z,8.10
2022-08-04T03:40:49.437Z,8.30
2022-08-04T03:41:51.916Z,8.10
2022-08-04T03:42:49.438Z,8.30
2022-08-04T03:43:57.954Z,8.20
2022-08-04T03:44:49.450Z,8.10
2022-08-04T03:45:49.449Z,7.90
2022-08-04T03:46:49.460Z,8.00
2022-08-04T03:47:49.458Z,8.10
2022-08-04T03:48:49.456Z,8.10
2022-08-04T03:49:49.460Z,7.80
2022-08-04T03:50:49.465Z,8.00
2022-08-04T03:51:49.466Z,7.90
2022-08-04T03:52:49.473Z,8.10
2022-08-04T03:54:27.704Z,7.10
2022-08-04T03:55:27.704Z,7.90
2022-08-04T03:56:27.709Z,7.80
2022-08-04T03:57:27.709Z,7.70
2022-08-04T03:58:31.210Z,6.70
2022-08-04T03:59:27.712Z,7.10
2022-08-04T04:00:27.719Z,7.00
2022-08-04T04:01:27.727Z,7.40
2022-08-04T04:02:27.790Z,7.00
2022-08-04T04:03:29.104Z,7.00
2022-08-04T04:04:27.731Z,6.80
2022-08-04T04:05:27.730Z,6.70
2022-08-04T04:06:27.734Z,6.80
2022-08-04T04:07:35.873Z,6.90
2022-08-04T04:08:27.739Z,6.90
2022-08-04T04:09:28.776Z,7.10
2022-08-04T04:10:28.945Z,7.10
2022-08-04T04:11:27.746Z,7.10
2022-08-04T04:12:27.749Z,6.90
2022-08-04T04:13:27.753Z,7.00
2022-08-04T04:14:31.796Z,7.00
2022-08-04T04:15:27.759Z,6.90
2022-08-04T04:16:27.769Z,6.90
2022-08-04T04:17:27.769Z,7.10
2022-08-04T04:18:27.768Z,6.70
2022-08-04T04:19:27.769Z,6.90
2022-08-04T04:20:27.772Z,6.80
2022-08-04T04:21:27.773Z,7.00
2022-08-04T04:22:27.775Z,7.10
2022-08-04T04:23:27.781Z,7.20
2022-08-04T04:24:32.770Z,9.10
2022-08-04T04:25:27.783Z,6.80
2022-08-04T04:26:27.795Z,6.70
2022-08-04T04:27:27.789Z,7.00
2022-08-04T04:28:45.865Z,6.90
2022-08-04T04:29:27.802Z,7.20
2022-08-04T04:30:27.799Z,7.20
2022-08-04T04:31:27.802Z,7.00
2022-08-04T04:32:27.803Z,7.10
2022-08-04T04:33:27.804Z,6.80
2022-08-04T04:34:27.816Z,7.00
2022-08-04T04:35:27.810Z,7.20
2022-08-04T04:36:27.816Z,6.70
2022-08-04T04:37:27.820Z,6.80
2022-08-04T04:38:27.823Z,7.00
2022-08-04T04:39:27.913Z,7.00
2022-08-04T04:40:27.827Z,6.90
2022-08-04T04:41:27.831Z,7.00
2022-08-04T04:42:27.831Z,7.60
2022-08-04T04:43:50.905Z,7.30
2022-08-04T04:44:30.754Z,7.50
2022-08-04T04:45:27.843Z,7.50
2022-08-04T04:46:27.844Z,6.90
2022-08-04T04:48:07.402Z,7.30
2022-08-04T04:48:27.853Z,7.80
2022-08-04T04:49:27.847Z,7.30
2022-08-04T04:50:28.635Z,7.10
2022-08-04T04:51:27.856Z,8.00
2022-08-04T04:52:27.862Z,7.30
2022-08-04T04:53:27.860Z,7.30
2022-08-04T04:54:27.869Z,7.20
2022-08-04T04:55:27.867Z,7.10
2022-08-04T04:56:27.875Z,7.00
2022-08-04T04:57:54.657Z,6.40
2022-08-04T04:58:27.878Z,6.90
2022-08-04T04:59:27.879Z,6.50
2022-08-04T05:00:27.885Z,6.80
2022-08-04T05:02:20.454Z,6.90
2022-08-04T05:03:20.454Z,6.50
2022-08-04T05:04:20.461Z,7.10
2022-08-04T05:05:20.459Z,6.50
2022-08-04T05:06:20.461Z,6.70
2022-08-04T05:07:20.637Z,6.80
2022-08-04T05:08:42.704Z,6.50
2022-08-04T05:09:20.471Z,6.70
2022-08-04T05:10:20.476Z,6.60
2022-08-04T05:11:20.475Z,6.50
2022-08-04T05:14:32.440Z,6.70
2022-08-04T05:14:36.439Z,6.80
2022-08-04T05:14:37.359Z,6.70
2022-08-04T05:15:25.189Z,6.80
2022-08-04T05:16:23.716Z,6.80
2022-08-04T05:17:20.703Z,7.00
2022-08-04T05:21:31.440Z,6.80
2022-08-04T05:22:31.438Z,6.80
2022-08-04T05:23:31.445Z,6.90
2022-08-04T05:24:34.908Z,7.00
2022-08-04T05:25:31.449Z,6.90
2022-08-04T05:26:31.451Z,6.90
2022-08-04T05:27:31.453Z,6.80
2022-08-04T05:28:31.455Z,6.80
2022-08-04T05:29:31.999Z,6.90
2022-08-04T05:30:31.460Z,7.10
2022-08-04T05:31:31.465Z,6.70
2022-08-04T05:32:31.474Z,7.10
2022-08-04T05:33:31.476Z,7.00
2022-08-04T05:34:31.474Z,6.80
2022-08-04T05:35:47.945Z,7.30
2022-08-04T05:36:41.104Z,7.00
2022-08-04T05:37:31.482Z,6.90
2022-08-04T05:38:31.487Z,6.60
2022-08-04T05:39:34.451Z,7.00
2022-08-04T05:40:31.495Z,6.90
2022-08-04T05:41:32.314Z,7.20
2022-08-04T05:42:31.496Z,6.80
2022-08-04T05:43:31.501Z,6.60
2022-08-04T05:44:31.501Z,6.50
2022-08-04T05:45:39.282Z,6.40
2022-08-04T05:46:31.511Z,6.50
2022-08-04T05:47:31.511Z,6.70
2022-08-04T05:48:31.511Z,6.40
2022-08-04T05:49:31.512Z,6.80
2022-08-04T05:50:31.515Z,6.90
2022-08-04T05:51:31.526Z,6.70
2022-08-04T05:52:31.535Z,6.80
2022-08-04T05:53:31.535Z,6.90
2022-08-04T05:54:31.544Z,6.70
2022-08-04T05:55:57.206Z,6.70
2022-08-04T05:56:31.541Z,6.80
2022-08-04T05:57:31.548Z,6.60
2022-08-04T05:58:31.562Z,6.70
2022-08-04T05:59:31.550Z,6.30
2022-08-04T06:00:40.703Z,6.40
2022-08-04T06:01:31.612Z,6.50
2022-08-04T06:02:31.551Z,6.70
2022-08-04T06:03:31.573Z,6.70
2022-08-04T06:05:19.118Z,6.60
2022-08-04T06:06:19.120Z,7.00
2022-08-04T06:07:19.271Z,6.70
2022-08-04T06:08:19.126Z,6.40
2022-08-04T06:09:19.128Z,7.10
2022-08-04T06:10:20.446Z,6.30
2022-08-04T06:11:19.140Z,6.20
2022-08-04T06:12:19.141Z,6.30
2022-08-04T06:13:47.884Z,6.50
2022-08-04T06:14:19.144Z,6.60
2022-08-04T06:15:19.147Z,6.70
2022-08-04T06:16:28.729Z,6.60
2022-08-04T06:18:33.024Z,6.60
2022-08-04T06:19:58.635Z,6.70
2022-08-04T06:19:59.694Z,6.50
2022-08-04T06:20:23.231Z,6.60
2022-08-04T06:21:19.167Z,6.60
2022-08-04T06:22:19.176Z,6.60
2022-08-04T06:23:19.173Z,7.00
2022-08-04T06:24:19.175Z,6.70
2022-08-04T06:25:19.184Z,6.60
2022-08-04T06:26:19.180Z,6.60
2022-08-04T06:27:19.396Z,6.40
2022-08-04T06:28:19.187Z,6.50
2022-08-04T06:29:19.192Z,6.70
2022-08-04T06:30:19.194Z,6.50
2022-08-04T06:32:27.107Z,7.00
2022-08-04T06:32:30.374Z,7.00
2022-08-04T06:33:19.205Z,6.60
2022-08-04T06:34:19.209Z,6.50
2022-08-04T06:35:19.221Z,7.10
2022-08-04T06:36:19.218Z,6.80
2022-08-04T06:37:41.967Z,7.10
2022-08-04T06:38:21.275Z,7.10
2022-08-04T06:39:19.272Z,7.20
2022-08-04T06:40:29.521Z,6.90
2022-08-04T06:41:19.233Z,6.80
2022-08-04T06:42:22.474Z,7.50
2022-08-04T06:43:20.452Z,7.30
2022-08-04T06:44:21.422Z,7.70
2022-08-04T06:45:19.248Z,7.70
2022-08-04T06:46:19.251Z,7.20
2022-08-04T06:47:19.560Z,7.30
2022-08-04T06:48:19.260Z,7.20
2022-08-04T06:49:19.261Z,7.00
2022-08-04T06:51:29.669Z,7.00
2022-08-04T06:51:30.340Z,7.20
2022-08-04T06:52:19.271Z,7.10
2022-08-04T06:53:19.274Z,7.00
2022-08-04T06:54:19.280Z,7.30
2022-08-04T06:55:19.283Z,7.10
2022-08-04T06:56:19.286Z,7.20
2022-08-04T06:57:19.434Z,7.30
2022-08-04T06:58:19.292Z,7.10
2022-08-04T06:59:19.300Z,7.20
2022-08-04T07:00:19.301Z,7.10
2022-08-04T07:01:19.327Z,7.60
2022-08-04T07:02:19.311Z,7.00
2022-08-04T07:03:19.347Z,6.60
2022-08-04T07:04:19.319Z,6.60
2022-08-04T07:05:19.321Z,6.60
2022-08-04T07:06:19.342Z,6.60
2022-08-04T07:07:19.611Z,6.80
2022-08-04T07:08:19.343Z,6.90
2022-08-04T07:09:19.338Z,6.80
2022-08-04T07:10:22.309Z,6.80
2022-08-04T07:11:19.343Z,6.50
2022-08-04T07:12:19.348Z,6.60
2022-08-04T07:13:19.352Z,6.80
2022-08-04T07:14:19.356Z,6.80
2022-08-04T07:15:19.361Z,6.60
2022-08-04T07:16:19.368Z,6.70
2022-08-04T07:17:19.590Z,6.70
2022-08-04T07:18:19.371Z,6.80
2022-08-04T07:19:19.377Z,6.50
2022-08-04T07:20:30.353Z,6.60
2022-08-04T07:21:19.399Z,6.60
2022-08-04T07:22:25.655Z,6.40
2022-08-04T07:23:19.397Z,6.60
2022-08-04T07:24:19.396Z,6.80
2022-08-04T07:25:19.404Z,6.80
2022-08-04T07:26:19.612Z,6.90
2022-08-04T07:27:47.629Z,6.60
2022-08-04T07:28:19.416Z,7.30
2022-08-04T07:29:19.424Z,7.30
2022-08-04T07:30:23.085Z,7.60
2022-08-04T07:32:19.437Z,8.30
2022-08-04T07:33:19.443Z,7.30
2022-08-04T07:34:22.102Z,7.20
2022-08-04T07:36:04.448Z,7.30
2022-08-04T07:36:19.449Z,7.60
2022-08-04T07:37:19.764Z,7.60
2022-08-04T07:38:19.461Z,7.60
2022-08-04T07:39:27.449Z,7.70
2022-08-04T07:40:19.470Z,7.60
2022-08-04T07:41:35.547Z,7.00
2022-08-04T07:42:19.482Z,7.20
2022-08-04T07:43:19.485Z,7.00
2022-08-04T07:44:19.492Z,7.20
2022-08-04T07:45:19.498Z,7.10
2022-08-04T07:46:19.499Z,7.00
2022-08-04T07:47:23.563Z,7.50
2022-08-04T07:48:19.512Z,7.20
2022-08-04T07:49:57.363Z,7.40
2022-08-04T07:50:19.518Z,7.60
2022-08-04T07:51:19.526Z,7.70
2022-08-04T07:52:19.535Z,7.60
2022-08-04T07:53:54.600Z,7.70
2022-08-04T07:54:19.544Z,8.00
2022-08-04T07:55:19.545Z,8.00
2022-08-04T07:56:19.551Z,8.30
2022-08-04T07:57:40.115Z,8.70
2022-08-04T07:58:19.568Z,8.70
2022-08-04T07:59:19.567Z,8.60
2022-08-04T08:00:19.571Z,8.20
2022-08-04T08:01:19.574Z,8.40
2022-08-04T08:02:19.587Z,8.40
2022-08-04T08:03:21.628Z,8.00
2022-08-04T08:04:19.596Z,8.30
2022-08-04T08:05:19.604Z,8.00
2022-08-04T08:06:32.147Z,7.80
2022-08-04T08:07:19.961Z,7.60
2022-08-04T08:08:19.615Z,7.80
2022-08-04T08:09:19.619Z,7.90
2022-08-04T08:10:19.625Z,7.80
2022-08-04T08:11:19.632Z,7.30
2022-08-04T08:13:19.646Z,7.60
2022-08-04T08:14:19.653Z,7.60
2022-08-04T08:15:19.659Z,7.00
2022-08-04T08:17:19.951Z,7.60
2022-08-04T08:18:19.670Z,7.80
2022-08-04T08:19:19.678Z,7.70
2022-08-04T08:20:29.400Z,7.80
2022-08-04T08:21:19.695Z,7.90
2022-08-04T08:22:19.694Z,7.80
2022-08-04T08:23:19.710Z,7.60
2022-08-04T08:24:19.709Z,7.70
2022-08-04T08:25:19.715Z,7.70
2022-08-04T08:26:19.718Z,8.00
2022-08-04T08:27:20.071Z,7.70
2022-08-04T08:28:19.739Z,7.80
2022-08-04T08:29:19.747Z,8.00
2022-08-04T08:30:19.798Z,7.60
2022-08-04T08:31:19.755Z,7.80
2022-08-04T08:32:19.760Z,7.50
2022-08-04T08:33:19.763Z,7.90
2022-08-04T08:34:28.014Z,7.70
2022-08-04T08:35:19.778Z,7.90
2022-08-04T08:36:19.790Z,7.90
2022-08-04T08:40:10.706Z,8.00
2022-08-04T08:41:10.713Z,7.70
2022-08-04T08:42:10.721Z,8.10
2022-08-04T08:44:04.545Z,7.70
2022-08-04T08:44:57.612Z,7.80
2022-08-04T08:45:53.291Z,7.60
2022-08-04T08:46:53.296Z,7.80
2022-08-04T08:48:06.375Z,7.70
2022-08-04T08:48:53.311Z,7.40
2022-08-04T08:50:02.293Z,7.20
2022-08-04T08:50:53.321Z,7.30
2022-08-04T08:51:53.335Z,7.40
2022-08-04T08:53:01.287Z,7.60
2022-08-04T08:53:53.347Z,7.00
2022-08-04T08:54:53.354Z,7.30
2022-08-04T08:55:53.362Z,7.30
2022-08-04T08:56:53.369Z,7.20
2022-08-04T08:57:59.919Z,7.70
2022-08-04T08:58:53.379Z,7.80
2022-08-04T08:59:53.386Z,7.60
2022-08-04T09:00:53.392Z,7.40
2022-08-04T09:01:53.505Z,7.30
2022-08-04T09:03:04.475Z,7.40
2022-08-04T09:03:53.424Z,7.70
2022-08-04T09:04:53.430Z,7.80
2022-08-04T09:05:53.429Z,7.90
2022-08-04T09:06:53.439Z,8.00
2022-08-04T09:07:53.446Z,7.70
2022-08-04T09:08:53.452Z,7.50
2022-08-04T09:09:53.461Z,7.70
2022-08-04T09:10:53.467Z,7.70
2022-08-04T09:11:53.473Z,7.70
2022-08-04T09:12:53.484Z,7.60
2022-08-04T09:13:53.498Z,7.90
2022-08-04T09:14:53.497Z,7.70
2022-08-04T09:15:54.384Z,8.00
2022-08-04T09:16:53.521Z,8.20
2022-08-04T09:17:53.521Z,7.80
2022-08-04T09:18:53.535Z,7.80
2022-08-04T09:19:53.536Z,8.20
2022-08-04T09:20:53.546Z,7.90
2022-08-04T09:21:53.552Z,8.00
2022-08-04T09:22:53.559Z,8.10
2022-08-04T09:23:53.567Z,8.20
2022-08-04T09:24:53.580Z,8.40
2022-08-04T09:25:53.586Z,8.00
2022-08-04T09:26:59.710Z,8.50
2022-08-04T09:27:53.602Z,8.30
2022-08-04T09:28:54.777Z,8.40
2022-08-04T09:29:53.619Z,8.30
2022-08-04T09:30:53.675Z,8.40
2022-08-04T09:32:07.356Z,8.20
2022-08-04T09:32:53.642Z,8.30
2022-08-04T09:33:53.651Z,8.00
2022-08-04T09:35:02.050Z,8.10
2022-08-04T09:35:53.668Z,8.10
2022-08-04T09:36:53.673Z,8.10
2022-08-04T09:37:53.686Z,8.20
2022-08-04T09:38:53.768Z,8.20
2022-08-04T09:39:53.704Z,8.50
2022-08-04T09:40:57.154Z,8.60
2022-08-04T09:41:53.714Z,8.40
2022-08-04T09:42:53.719Z,8.30
2022-08-04T09:43:59.022Z,8.40
2022-08-04T09:44:57.649Z,8.30
2022-08-04T09:45:53.753Z,8.60
2022-08-04T09:46:53.765Z,8.60
2022-08-04T09:47:53.767Z,8.60
2022-08-04T09:48:53.773Z,8.30
2022-08-04T09:49:53.786Z,8.10
2022-08-04T09:50:53.793Z,8.00
2022-08-04T09:51:57.165Z,8.30
2022-08-04T09:52:53.811Z,8.10
2022-08-04T09:53:53.825Z,7.90
2022-08-04T09:54:53.829Z,8.30
2022-08-04T09:55:55.837Z,8.00
2022-08-04T09:56:53.849Z,7.70
2022-08-04T09:57:53.862Z,7.60
2022-08-04T09:58:53.866Z,7.90
2022-08-04T09:59:53.885Z,7.80
2022-08-04T10:00:53.893Z,8.00
2022-08-04T10:01:59.718Z,8.00
2022-08-04T10:02:53.974Z,7.70
2022-08-04T10:03:53.925Z,7.90
2022-08-04T10:04:53.953Z,8.00
2022-08-04T10:05:53.953Z,7.70
2022-08-04T10:06:53.970Z,7.80
2022-08-04T10:07:59.669Z,7.90
2022-08-04T10:08:57.015Z,7.80
2022-08-04T10:09:54.012Z,7.70
2022-08-04T10:10:54.027Z,7.90
2022-08-04T10:11:55.645Z,7.50
2022-08-04T10:12:54.057Z,7.30
2022-08-04T10:18:13.326Z,7.20
2022-08-04T10:19:13.344Z,7.00
2022-08-04T10:20:13.360Z,7.20
2022-08-04T10:21:15.661Z,7.20
2022-08-04T10:22:30.922Z,6.90
2022-08-04T10:23:13.424Z,7.10
2022-08-04T10:24:13.433Z,7.10
2022-08-04T10:26:05.707Z,7.30
2022-08-04T10:26:13.473Z,7.00
2022-08-04T10:27:13.494Z,7.00
2022-08-04T10:28:13.513Z,6.80
2022-08-04T10:29:13.531Z,7.00
2022-08-04T10:30:13.641Z,7.20
2022-08-04T10:31:13.574Z,7.00
2022-08-04T10:32:13.593Z,7.10
2022-08-04T10:33:13.630Z,7.10
2022-08-04T10:34:13.633Z,6.90
2022-08-04T10:35:13.659Z,7.10
2022-08-04T10:36:13.680Z,7.30
2022-08-04T10:37:13.819Z,7.30
2022-08-04T10:38:13.726Z,7.70
2022-08-04T10:39:43.579Z,7.80
2022-08-04T10:40:13.912Z,7.70
2022-08-04T10:41:13.785Z,7.70
2022-08-04T10:42:13.812Z,8.00
2022-08-04T10:43:20.771Z,7.60
2022-08-04T10:44:13.855Z,7.80
2022-08-04T10:45:13.872Z,8.30
2022-08-04T10:46:13.894Z,8.00
2022-08-04T10:47:13.948Z,7.70
2022-08-04T10:48:13.939Z,7.80
2022-08-04T10:49:13.956Z,7.70
2022-08-04T10:50:13.980Z,7.50
2022-08-04T10:51:14.003Z,7.60
2022-08-04T10:52:14.030Z,7.20
2022-08-04T10:53:14.049Z,7.60
2022-08-04T10:54:14.070Z,7.30
2022-08-04T10:55:14.095Z,7.10
2022-08-04T10:56:14.117Z,7.00
2022-08-04T10:57:16.513Z,7.20
2022-08-04T10:58:14.170Z,7.50
2022-08-04T10:59:14.187Z,7.50
2022-08-04T11:00:14.211Z,7.00
2022-08-04T11:01:50.863Z,7.10
2022-08-04T11:02:16.615Z,6.50
2022-08-04T11:03:14.370Z,6.60
2022-08-04T11:04:14.297Z,6.80
2022-08-04T11:05:14.322Z,7.20
2022-08-04T11:06:14.349Z,6.90
2022-08-04T11:07:14.411Z,7.30
2022-08-04T11:08:17.593Z,6.40
2022-08-04T11:09:15.100Z,6.70
2022-08-04T11:10:14.444Z,6.60
2022-08-04T11:11:14.459Z,6.70
2022-08-04T11:12:14.485Z,6.90
2022-08-04T11:13:22.013Z,6.90
2022-08-04T11:14:14.529Z,6.90
2022-08-04T11:15:14.556Z,6.80
2022-08-04T11:16:14.649Z,6.40
2022-08-04T11:17:14.657Z,6.80
2022-08-04T11:18:16.447Z,6.50
2022-08-04T11:19:14.645Z,6.50
2022-08-04T11:20:36.401Z,6.50
2022-08-04T11:21:14.687Z,6.40
2022-08-04T11:22:14.721Z,6.60
2022-08-04T11:23:14.734Z,6.50
2022-08-04T11:24:14.760Z,6.60
2022-08-04T11:25:14.782Z,6.70
2022-08-04T11:26:14.805Z,6.50
2022-08-04T11:27:14.828Z,6.60
2022-08-04T11:28:14.851Z,6.60
2022-08-04T11:29:14.874Z,6.80
2022-08-04T11:30:14.901Z,7.00
2022-08-04T11:31:14.921Z,7.00
2022-08-04T11:32:14.948Z,7.00
2022-08-04T11:33:14.969Z,6.80
2022-08-04T11:34:14.993Z,6.80
2022-08-04T11:35:15.015Z,7.80
2022-08-04T11:36:15.039Z,6.90
2022-08-04T11:37:15.196Z,6.70
2022-08-04T11:38:15.089Z,7.00
2022-08-04T11:39:15.207Z,7.00
2022-08-04T11:40:15.136Z,7.00
2022-08-04T11:41:15.157Z,7.00
2022-08-04T11:42:15.185Z,7.00
2022-08-04T11:43:15.198Z,6.90
2022-08-04T11:44:15.231Z,7.00
2022-08-04T11:45:15.250Z,6.80
2022-08-04T11:46:15.272Z,7.00
2022-08-04T11:47:15.294Z,6.90
2022-08-04T11:48:15.516Z,6.90
2022-08-04T11:49:15.342Z,6.90
2022-08-04T11:50:15.411Z,6.90
2022-08-04T11:51:15.392Z,7.00
2022-08-04T11:52:17.948Z,7.10
2022-08-04T11:53:15.431Z,7.00
2022-08-04T11:54:15.484Z,6.80
2022-08-04T11:55:15.481Z,6.60
2022-08-04T11:56:35.632Z,6.70
2022-08-04T11:57:15.521Z,6.50
2022-08-04T11:58:15.551Z,6.40
2022-08-04T11:59:15.573Z,6.50
2022-08-04T12:00:15.605Z,6.60
2022-08-04T12:01:17.340Z,6.70
2022-08-04T12:02:19.122Z,6.70
2022-08-04T12:03:15.659Z,6.80
2022-08-04T12:04:15.682Z,6.80
2022-08-04T12:05:35.311Z,6.70
2022-08-04T12:06:15.727Z,6.90
2022-08-04T12:07:32.104Z,6.90
2022-08-04T12:08:15.771Z,6.80
2022-08-04T12:09:18.817Z,7.00
2022-08-04T12:10:15.813Z,7.00
2022-08-04T12:11:15.840Z,7.00
2022-08-04T12:12:15.859Z,7.20
2022-08-04T12:13:15.880Z,7.30
2022-08-04T12:14:15.907Z,7.30
2022-08-04T12:15:15.924Z,6.80
2022-08-04T12:16:15.947Z,6.90
2022-08-04T12:17:15.974Z,7.10
2022-08-04T12:18:16.022Z,7.10
2022-08-04T12:19:16.013Z,6.80
2022-08-04T12:20:31.403Z,7.00
2022-08-04T12:21:16.057Z,6.90
2022-08-04T12:22:16.080Z,7.20
2022-08-04T12:23:16.101Z,6.90
2022-08-04T12:24:16.122Z,7.00
2022-08-04T12:25:16.145Z,7.00
2022-08-04T12:26:16.164Z,6.40
2022-08-04T12:27:16.186Z,6.40
2022-08-04T12:28:16.206Z,6.90
2022-08-04T12:29:16.225Z,6.80
2022-08-04T12:30:59.580Z,6.70
2022-08-04T12:31:16.271Z,5.80
2022-08-04T12:32:16.290Z,5.80
2022-08-04T12:33:17.937Z,6.40
2022-08-04T12:34:16.330Z,6.70
2022-08-04T12:35:16.353Z,6.60
2022-08-04T12:36:20.797Z,6.50
2022-08-04T12:37:22.144Z,6.70
2022-08-04T12:38:16.414Z,6.60
2022-08-04T12:39:16.538Z,6.70
2022-08-04T12:40:28.634Z,7.10
2022-08-04T12:41:16.477Z,7.00
2022-08-04T12:42:21.190Z,6.80
2022-08-04T12:43:16.514Z,6.50
2022-08-04T12:44:59.108Z,6.80
2022-08-04T12:45:59.120Z,6.80
2022-08-04T12:47:27.748Z,7.10
2022-08-04T12:47:59.162Z,6.90
2022-08-04T12:49:02.814Z,6.60
2022-08-04T12:50:51.803Z,7.50
2022-08-04T12:52:59.051Z,6.90
2022-08-04T12:53:34.376Z,7.20
2022-08-04T12:54:34.398Z,7.10
2022-08-04T12:56:57.064Z,7.60
2022-08-04T12:57:57.077Z,7.10
2022-08-04T12:58:57.100Z,7.10
2022-08-04T12:59:58.080Z,7.00
2022-08-04T13:00:57.212Z,7.30
2022-08-04T13:02:08.979Z,6.80
2022-08-04T13:02:57.166Z,6.80
2022-08-04T13:03:57.186Z,6.90
2022-08-04T13:04:57.205Z,6.90
2022-08-04T13:06:44.796Z,6.90
2022-08-04T13:07:44.809Z,6.80
2022-08-04T13:08:44.831Z,6.90
2022-08-04T13:09:44.850Z,6.80
2022-08-04T13:10:44.867Z,7.20
2022-08-04T13:11:44.876Z,7.10
2022-08-04T13:12:44.898Z,7.10
2022-08-04T13:13:44.917Z,7.10
2022-08-04T13:14:44.953Z,6.90
2022-08-04T13:15:47.479Z,6.90
2022-08-04T13:16:46.501Z,6.90
2022-08-04T13:17:44.991Z,6.90
2022-08-04T13:18:45.366Z,6.90
2022-08-04T13:19:45.017Z,6.80
2022-08-04T13:20:45.035Z,7.00
2022-08-04T13:21:50.079Z,6.90
2022-08-04T13:23:21.819Z,7.10
2022-08-04T13:24:10.605Z,7.10
2022-08-04T13:24:56.823Z,6.90
2022-08-04T13:26:45.146Z,6.70
2022-08-04T13:26:54.354Z,7.00
2022-08-04T13:27:45.153Z,6.70
2022-08-04T13:28:46.580Z,6.60
2022-08-04T13:30:45.206Z,6.60
2022-08-04T13:31:45.216Z,6.80
2022-08-04T13:32:45.230Z,6.60
2022-08-04T13:34:49.562Z,6.80
2022-08-04T13:35:55.082Z,7.00
2022-08-04T13:36:45.341Z,7.00
2022-08-04T13:37:45.311Z,7.20
2022-08-04T13:38:45.339Z,7.10
2022-08-04T13:39:45.339Z,7.00
2022-08-04T13:40:45.579Z,7.20
2022-08-04T13:41:45.375Z,6.90